createdAt,value
2022-12-11T12:32:16.670Z,25.40
2022-12-11T12:35:50.345Z,21.85
2022-12-11T12:39:30.534Z,21.88
2022-12-11T12:43:23.089Z,16.58
2022-12-11T12:46:59.857Z,12.90
2022-12-11T12:50:38.199Z,13.27
2022-12-11T12:54:09.014Z,16.95
2022-12-11T12:57:37.021Z,10.43
2022-12-11T13:01:20.313Z,8.90
2022-12-11T13:04:59.422Z,11.88
2022-12-11T13:08:28.421Z,11.70
2022-12-11T13:11:56.562Z,13.23
2022-12-11T13:15:43.472Z,9.35
2022-12-11T13:19:23.298Z,12.77
2022-12-11T13:23:08.577Z,10.30
2022-12-11T13:26:33.383Z,11.57
2022-12-11T13:30:14.577Z,10.68
2022-12-11T13:34:02.718Z,10.18
2022-12-11T13:37:29.692Z,11.82
2022-12-11T13:40:56.559Z,15.07
2022-12-11T13:44:41.557Z,13.77
2022-12-11T13:48:05.932Z,15.65
2022-12-11T13:51:32.329Z,10.20
2022-12-11T13:54:56.261Z,15.20
2022-12-11T13:58:22.239Z,14.60
2022-12-11T14:01:44.103Z,15.82
2022-12-11T14:05:11.175Z,17.42
2022-12-11T14:08:39.864Z,15.18
2022-12-11T14:12:02.654Z,18.75
2022-12-11T14:15:26.020Z,17.05
2022-12-11T14:18:51.333Z,17.85
2022-12-11T14:22:26.818Z,17.77
2022-12-11T14:26:00.881Z,17.38
2022-12-11T14:29:28.184Z,16.10
2022-12-11T14:32:53.177Z,15.18
2022-12-11T14:36:17.467Z,15.57
2022-12-11T14:40:14.371Z,12.32
2022-12-11T14:43:46.132Z,15.23
2022-12-11T14:47:24.013Z,14.30
2022-12-11T14:50:57.563Z,15.60
2022-12-11T14:54:38.492Z,15.70
2022-12-11T14:58:07.466Z,18.00
2022-12-11T15:01:33.623Z,13.02
2022-12-11T15:05:19.468Z,13.10
2022-12-11T15:08:41.371Z,16.52
2022-12-11T15:12:16.774Z,14.40
2022-12-11T15:15:47.651Z,12.70
2022-12-11T15:19:27.598Z,14.50
2022-12-11T15:22:49.907Z,12.07
2022-12-11T15:26:11.831Z,15.85
2022-12-11T15:29:38.246Z,16.50
2022-12-11T15:33:05.861Z,16.88
2022-12-11T15:36:30.554Z,14.02
2022-12-11T15:39:54.540Z,13.07
2022-12-11T15:43:16.445Z,12.00
2022-12-11T15:46:38.360Z,16.23
2022-12-11T15:50:18.688Z,13.20
2022-12-11T15:53:40.763Z,13.55
2022-12-11T15:57:07.564Z,15.30
2022-12-11T16:00:29.672Z,14.57
2022-12-11T16:03:51.638Z,14.35
2022-12-11T16:07:19.773Z,13.60
2022-12-11T16:10:46.129Z,10.77
2022-12-11T16:14:08.152Z,14.52
2022-12-11T16:17:31.310Z,12.23
2022-12-11T16:20:53.164Z,12.15
2022-12-11T16:24:15.145Z,14.23
2022-12-11T16:27:36.972Z,10.25
2022-12-11T16:30:58.905Z,15.27
2022-12-11T16:34:27.807Z,14.50
2022-12-11T16:37:51.985Z,10.82
2022-12-11T16:41:14.015Z,12.82
2022-12-11T16:44:40.931Z,11.52
2022-12-11T16:48:06.005Z,10.93
2022-12-11T16:51:28.076Z,11.23
2022-12-11T16:54:49.922Z,11.57
2022-12-11T16:58:16.186Z,10.88
2022-12-11T17:01:38.334Z,14.52
2022-12-11T17:05:00.197Z,11.18
2022-12-11T17:08:22.249Z,15.48
2022-12-11T17:11:44.488Z,9.00
2022-12-11T17:15:07.669Z,8.82
2022-12-11T17:18:29.605Z,11.35
2022-12-11T17:21:51.997Z,7.93
2022-12-11T17:25:19.099Z,8.68
2022-12-11T17:28:41.071Z,9.35
2022-12-11T17:32:03.182Z,12.77
2022-12-11T17:35:25.017Z,11.90
2022-12-11T17:39:59.864Z,13.85
2022-12-11T17:43:22.259Z,10.07
2022-12-11T17:46:44.077Z,10.60
2022-12-11T17:50:06.610Z,12.63
2022-12-11T17:53:28.519Z,14.55
2022-12-11T17:56:50.854Z,10.35
2022-12-11T18:00:13.475Z,10.30
2022-12-11T18:03:37.003Z,13.88
2022-12-11T18:06:58.831Z,9.50
2022-12-11T18:10:21.336Z,9.43
2022-12-11T18:13:45.109Z,12.52
2022-12-11T18:17:06.988Z,12.60
2022-12-11T18:20:30.861Z,9.20
2022-12-11T18:23:53.580Z,13.80
2022-12-11T18:27:15.423Z,11.80
2022-12-11T18:30:37.295Z,9.82
2022-12-11T18:33:59.262Z,11.45
2022-12-11T18:37:26.232Z,18.95
2022-12-11T18:40:49.733Z,14.73
2022-12-11T18:44:11.556Z,11.02
2022-12-11T18:47:33.873Z,9.38
2022-12-11T18:50:55.637Z,10.20
2022-12-11T18:54:17.603Z,8.90
2022-12-11T18:57:39.363Z,11.07
2022-12-11T19:01:09.181Z,11.25
2022-12-11T19:04:31.108Z,11.10
2022-12-11T19:07:52.999Z,17.00
2022-12-11T19:11:22.539Z,13.32
2022-12-11T19:14:44.518Z,9.25
2022-12-11T19:18:06.906Z,8.23
2022-12-11T19:21:28.855Z,13.23
2022-12-11T19:24:51.084Z,8.02
2022-12-11T19:28:14.500Z,10.25
2022-12-11T19:31:36.579Z,7.20
2022-12-11T19:34:58.376Z,7.03
2022-12-11T19:38:20.338Z,10.30
2022-12-11T19:41:42.732Z,10.07
2022-12-11T19:45:05.206Z,8.15
2022-12-11T19:48:28.042Z,9.18
2022-12-11T19:51:49.954Z,10.63
2022-12-11T19:55:13.448Z,11.27
2022-12-11T19:58:35.871Z,9.70
2022-12-11T20:01:57.754Z,8.30
2022-12-11T20:05:19.663Z,9.57
2022-12-11T20:08:46.037Z,9.38
2022-12-11T20:12:10.258Z,8.45
2022-12-11T20:15:32.479Z,9.02
2022-12-11T20:18:55.599Z,8.57
2022-12-11T20:22:17.530Z,11.23
2022-12-11T20:25:40.315Z,8.95
2022-12-11T20:29:05.134Z,6.80
2022-12-11T20:32:27.122Z,10.85
2022-12-11T20:35:48.948Z,7.10
2022-12-11T20:39:10.911Z,7.75
2022-12-11T20:42:34.073Z,9.07
2022-12-11T20:45:56.181Z,9.32
2022-12-11T20:49:17.995Z,8.93
2022-12-11T20:52:39.906Z,7.22
2022-12-11T20:56:02.964Z,11.43
2022-12-11T20:59:26.084Z,8.48
2022-12-11T21:02:51.111Z,7.72
2022-12-11T21:06:35.412Z,7.65
2022-12-11T21:09:57.233Z,9.57
2022-12-11T21:13:19.027Z,10.45
2022-12-11T21:16:41.314Z,8.77
2022-12-11T21:20:03.950Z,7.82
2022-12-11T21:23:26.721Z,8.20
2022-12-11T21:26:50.048Z,9.23
2022-12-11T21:30:12.760Z,8.38
2022-12-11T21:33:35.742Z,9.20
2022-12-11T21:36:57.633Z,7.35
2022-12-11T21:40:19.661Z,8.10
2022-12-11T21:44:14.613Z,7.85
2022-12-11T21:47:25.693Z,8.23
2022-12-11T21:50:47.457Z,11.57
2022-12-11T21:54:14.905Z,7.15
2022-12-11T21:57:36.899Z,11.82
2022-12-11T22:00:58.760Z,9.07
2022-12-11T22:04:20.713Z,11.68
2022-12-11T22:07:42.901Z,9.52
2022-12-11T22:11:06.181Z,8.90
2022-12-11T22:14:30.668Z,9.63
2022-12-11T22:17:54.161Z,10.77
2022-12-11T22:21:16.171Z,10.15
2022-12-11T22:24:38.859Z,9.05
2022-12-11T22:28:00.651Z,9.18
2022-12-11T22:31:26.201Z,7.35
2022-12-11T22:34:47.968Z,9.15
2022-12-11T22:38:09.826Z,9.38
2022-12-11T22:41:32.918Z,7.90
2022-12-11T22:44:54.658Z,9.25
2022-12-11T22:48:16.510Z,7.22
2022-12-11T22:51:39.414Z,7.13
2022-12-11T22:55:01.677Z,7.65
2022-12-11T22:58:23.543Z,8.52
2022-12-11T23:01:45.436Z,8.63
2022-12-11T23:05:07.955Z,7.38
2022-12-11T23:08:29.973Z,7.70
2022-12-11T23:11:52.152Z,6.53
2022-12-11T23:15:14.343Z,8.77
2022-12-11T23:18:36.828Z,7.88
2022-12-11T23:21:58.666Z,6.50
2022-12-11T23:25:20.558Z,6.20
2022-12-11T23:28:42.509Z,6.53
2022-12-11T23:32:04.509Z,8.18
2022-12-11T23:35:26.337Z,7.13
2022-12-11T23:38:54.336Z,7.43
2022-12-11T23:42:16.960Z,7.55
2022-12-11T23:45:38.777Z,7.15
2022-12-11T23:49:00.857Z,8.90
2022-12-11T23:52:22.950Z,7.25
2022-12-11T23:55:46.282Z,6.78
2022-12-11T23:59:12.094Z,9.23
